Time;durP1;ratioP1;P1;durP2;ratioP2;P2;SDS_P1;SDS_P2;PMS_P1;PMS_P2;Temp;Humidity;BMP_temperature;BMP_pressure;BME280_temperature;BME280_humidity;BME280_pressure;Samples;Min_cycle;Max_cycle;Signal;HPM_P1;HPM_P2
2023/07/21 00:00:15;;;;;;;8.85;7.05;;;;;;;14.25;100.00;101124.63;5309124;28;20084;-68
2023/07/21 00:02:46;;;;;;;9.13;7.32;;;;;;;14.21;100.00;101118.66;5310626;28;20028;-68
2023/07/21 00:05:18;;;;;;;7.97;6.88;;;;;;;14.26;100.00;101112.88;5305817;28;20652;-68
2023/07/21 00:07:49;;;;;;;10.00;7.30;;;;;;;14.26;100.00;101112.88;5305169;28;20054;-68
2023/07/21 00:10:21;;;;;;;9.18;7.72;;;;;;;14.34;100.00;101107.66;5309222;28;20024;-68
2023/07/21 00:12:52;;;;;;;9.68;7.78;;;;;;;14.25;100.00;101112.03;5309284;28;20066;-68
2023/07/21 00:15:24;;;;;;;10.27;7.85;;;;;;;14.25;100.00;101111.19;5308950;28;20100;-68
2023/07/21 00:17:55;;;;;;;10.45;8.15;;;;;;;14.17;100.00;101113.69;5304914;28;20032;-68
2023/07/21 00:20:29;;;;;;;9.45;8.30;;;;;;;14.12;100.00;101116.78;5310863;28;20039;-68
2023/07/21 00:23:00;;;;;;;8.40;7.50;;;;;;;14.17;100.00;101103.81;5305412;28;20039;-68
2023/07/21 00:25:32;;;;;;;10.55;8.30;;;;;;;14.20;100.00;101108.91;5309369;28;20026;-68
2023/07/21 00:28:03;;;;;;;9.75;7.95;;;;;;;14.21;100.00;101105.25;5308904;28;20134;-68
2023/07/21 00:30:37;;;;;;;11.82;7.60;;;;;;;14.08;100.00;101096.56;5308117;28;20389;-68
2023/07/21 00:33:09;;;;;;;9.90;7.57;;;;;;;14.20;100.00;101094.63;5311211;28;21442;-68
2023/07/21 00:35:43;;;;;;;9.13;7.32;;;;;;;14.13;100.00;101091.63;5307680;28;20582;-68
2023/07/21 00:38:14;;;;;;;9.50;7.97;;;;;;;14.08;100.00;101097.41;5309282;28;20037;-68
2023/07/21 00:40:46;;;;;;;11.52;8.88;;;;;;;14.08;100.00;101097.41;5307782;28;20024;-68
2023/07/21 00:43:18;;;;;;;9.02;8.13;;;;;;;14.18;100.00;101089.41;5306260;28;20032;-68
2023/07/21 00:45:49;;;;;;;9.43;8.05;;;;;;;14.27;100.00;101090.44;5309606;28;20032;-68
2023/07/21 00:48:21;;;;;;;9.48;7.93;;;;;;;14.21;100.00;101085.59;5312566;28;20393;-68
2023/07/21 00:50:53;;;;;;;11.38;9.00;;;;;;;14.15;100.00;101088.81;5312376;28;20131;-68
2023/07/21 00:53:25;;;;;;;12.25;8.68;;;;;;;14.19;100.00;101084.88;5313100;28;20032;-68
2023/07/21 00:55:57;;;;;;;8.65;7.70;;;;;;;14.10;100.00;101087.38;5311185;27;20492;-68
2023/07/21 00:58:30;;;;;;;9.52;8.52;;;;;;;14.11;100.00;101086.41;5294557;28;20142;-68
2023/07/21 01:01:02;;;;;;;9.88;8.88;;;;;;;14.14;100.00;101081.75;5312393;28;20388;-68
2023/07/21 01:03:35;;;;;;;9.40;8.07;;;;;;;14.04;100.00;101087.09;5311757;28;20023;-68
2023/07/21 01:06:08;;;;;;;9.98;8.98;;;;;;;14.01;100.00;101076.63;5313024;27;20028;-68
2023/07/21 01:08:40;;;;;;;9.23;7.97;;;;;;;14.02;100.00;101078.31;5309349;28;20048;-68
2023/07/21 01:11:12;;;;;;;9.23;7.88;;;;;;;13.93;100.00;101072.75;5310519;27;20522;-68
2023/07/21 01:13:44;;;;;;;10.63;9.35;;;;;;;13.97;100.00;101069.81;5312036;28;20035;-68
2023/07/21 01:16:17;;;;;;;11.05;8.93;;;;;;;13.87;100.00;101070.63;5312954;28;20028;-68
2023/07/21 01:18:51;;;;;;;9.20;8.30;;;;;;;13.97;100.00;101064.44;5312716;28;20015;-68
2023/07/21 01:21:51;;;;;;;9.82;8.82;;;;;;;13.91;100.00;101072.03;5311423;27;20035;-68
2023/07/21 01:24:28;;;;;;;9.77;8.20;;;;;;;13.89;100.00;101062.44;5301881;28;20134;-68
2023/07/21 01:27:00;;;;;;;10.55;8.13;;;;;;;13.86;100.00;101058.16;5311197;28;20027;-68
2023/07/21 01:29:38;;;;;;;9.23;8.20;;;;;;;13.80;100.00;101063.25;5310773;28;20080;-68
2023/07/21 01:32:12;;;;;;;10.25;9.15;;;;;;;13.76;100.00;101056.44;5313091;27;20068;-68
2023/07/21 01:34:44;;;;;;;11.55;9.65;;;;;;;13.72;100.00;101055.84;5310705;28;20036;-68
2023/07/21 01:37:17;;;;;;;10.43;9.43;;;;;;;13.66;100.00;101054.56;5313195;27;20363;-68
2023/07/21 01:39:49;;;;;;;9.82;8.82;;;;;;;13.78;100.00;101052.63;5312090;28;20050;-68
2023/07/21 01:42:25;;;;;;;9.93;8.93;;;;;;;13.69;100.00;101062.34;5311841;28;20038;-68
2023/07/21 01:44:57;;;;;;;11.38;9.85;;;;;;;13.66;100.00;101051.03;5310587;28;20031;-68
2023/07/21 01:47:31;;;;;;;12.85;9.52;;;;;;;13.59;100.00;101049.84;5313900;28;20019;-68
2023/07/21 01:50:08;;;;;;;13.27;10.80;;;;;;;13.62;100.00;101046.91;5309353;28;20024;-68
2023/07/21 01:52:42;;;;;;;13.98;10.65;;;;;;;13.53;100.00;101046.69;5311100;28;20078;-68
2023/07/21 01:55:25;;;;;;;10.50;9.10;;;;;;;13.55;100.00;101043.06;5310753;28;20021;-68
2023/07/21 01:58:06;;;;;;;9.73;8.73;;;;;;;13.48;100.00;101043.59;5311945;28;20034;-67
2023/07/21 02:00:41;;;;;;;11.35;10.10;;;;;;;13.52;100.00;101041.50;5310681;28;20491;-68
2023/07/21 02:03:15;;;;;;;11.48;9.45;;;;;;;13.48;100.00;101040.03;5314501;27;20487;-68
2023/07/21 02:05:48;;;;;;;;;;;;;;;13.55;100.00;101033.16;5310836;28;20062;-68
2023/07/21 02:08:20;;;;;;;11.18;9.70;;;;;;;13.42;100.00;101037.88;5312030;27;19983;-68
2023/07/21 02:10:52;;;;;;;11.05;9.80;;;;;;;13.42;100.00;101029.84;5310829;28;20106;-68
2023/07/21 02:13:23;;;;;;;12.82;10.60;;;;;;;13.42;100.00;101035.22;5310265;28;20031;-68
2023/07/21 02:15:55;;;;;;;11.75;9.93;;;;;;;13.35;100.00;101032.22;5309881;28;20670;-68
2023/07/21 02:18:26;;;;;;;10.35;9.23;;;;;;;13.43;100.00;101028.88;5308929;28;20023;-68
2023/07/21 02:21:02;;;;;;;11.93;9.43;;;;;;;13.46;100.00;101029.47;5307820;27;20033;-68
2023/07/21 02:23:34;;;;;;;13.60;10.88;;;;;;;13.40;100.00;101034.50;5310962;27;20469;-68
2023/07/21 02:26:05;;;;;;;11.40;10.20;;;;;;;13.40;100.00;101026.44;5308860;27;20038;-68
2023/07/21 02:28:36;;;;;;;11.80;10.25;;;;;;;13.36;100.00;101028.53;5307079;27;20822;-68
2023/07/21 02:31:09;;;;;;;10.35;9.15;;;;;;;13.19;100.00;101027.25;5308137;28;20039;-68
2023/07/21 02:33:40;;;;;;;12.20;9.50;;;;;;;13.22;100.00;101027.00;5312952;28;20031;-68
2023/07/21 02:36:13;;;;;;;10.13;9.13;;;;;;;13.28;100.00;101020.28;5305982;28;20074;-68
2023/07/21 02:38:45;;;;;;;12.30;8.85;;;;;;;13.14;100.00;101018.78;5309143;28;20097;-68
2023/07/21 02:41:16;;;;;;;11.20;9.38;;;;;;;13.17;100.00;101028.38;5308258;27;20036;-68
2023/07/21 02:43:47;;;;;;;11.43;10.32;;;;;;;13.25;100.00;101020.53;5311115;28;20796;-68
2023/07/21 02:46:19;;;;;;;11.77;8.75;;;;;;;13.15;100.00;101012.44;5305390;28;20034;-68
2023/07/21 02:48:50;;;;;;;10.88;9.38;;;;;;;13.14;100.00;101013.41;5305738;28;20023;-68
2023/07/21 02:51:21;;;;;;;11.75;9.95;;;;;;;13.14;100.00;101016.09;5308621;28;20051;-68
2023/07/21 02:53:53;;;;;;;13.30;10.32;;;;;;;13.14;100.00;101019.63;5310550;28;20046;-68
2023/07/21 02:56:24;;;;;;;11.55;9.82;;;;;;;13.21;100.00;101016.41;5309824;28;20040;-68
2023/07/21 02:58:56;;;;;;;11.07;9.32;;;;;;;13.09;100.00;101013.78;5311179;27;20024;-68
2023/07/21 03:01:29;;;;;;;11.13;10.02;;;;;;;12.99;100.00;101012.88;5308402;28;20114;-68
2023/07/21 03:04:03;;;;;;;10.82;9.68;;;;;;;13.08;100.00;101019.31;5309763;28;20043;-68
2023/07/21 03:06:34;;;;;;;9.75;8.65;;;;;;;13.04;100.00;101016.03;5306685;28;20443;-68
2023/07/21 03:09:05;;;;;;;10.20;9.20;;;;;;;13.09;100.00;101013.78;5309640;28;20079;-68
2023/07/21 03:11:38;;;;;;;9.80;8.77;;;;;;;13.03;100.00;101016.16;5306596;27;20500;-68
2023/07/21 03:14:12;;;;;;;9.90;8.90;;;;;;;13.01;100.00;101013.59;5308656;28;20023;-68
2023/07/21 03:16:43;;;;;;;;;;;;;;;13.14;100.00;101014.25;5308701;28;20039;-68
2023/07/21 03:19:15;;;;;;;10.23;8.40;;;;;;;12.94;100.00;101012.41;5305666;28;19926;-68
2023/07/21 03:21:46;;;;;;;10.55;9.50;;;;;;;12.93;100.00;101013.41;5308691;27;20023;-68
2023/07/21 03:24:17;;;;;;;10.13;9.07;;;;;;;12.80;100.00;101021.59;5305666;28;20027;-68
2023/07/21 03:26:50;;;;;;;10.30;8.32;;;;;;;12.78;100.00;101012.84;5310086;27;20114;-68
2023/07/21 03:29:22;;;;;;;10.15;9.10;;;;;;;12.83;100.00;101012.44;5308625;28;20020;-68
2023/07/21 03:31:53;;;;;;;9.38;8.40;;;;;;;12.71;100.00;101007.16;5310246;28;20054;-68
2023/07/21 03:34:24;;;;;;;11.05;9.05;;;;;;;12.82;100.00;101025.00;5309436;28;20162;-68
2023/07/21 03:36:56;;;;;;;9.70;8.68;;;;;;;12.59;100.00;101012.69;5309972;28;20492;-68
2023/07/21 03:39:27;;;;;;;10.50;9.38;;;;;;;12.72;100.00;101006.19;5307555;28;20031;-68
2023/07/21 03:41:59;;;;;;;10.77;8.77;;;;;;;12.59;100.00;101007.31;5308748;27;20027;-68
2023/07/21 03:44:30;;;;;;;10.15;9.15;;;;;;;12.71;100.00;101017.00;5309454;28;20509;-68
2023/07/21 03:47:01;;;;;;;12.32;9.65;;;;;;;12.58;100.00;101016.31;5306544;28;20493;-68
2023/07/21 03:49:35;;;;;;;11.18;9.60;;;;;;;12.64;100.00;101015.84;5304337;28;20023;-68
2023/07/21 03:52:06;;;;;;;11.07;9.97;;;;;;;12.64;100.00;101011.31;5308417;28;20537;-68
2023/07/21 03:54:38;;;;;;;10.75;9.68;;;;;;;12.57;100.00;101015.47;5304323;28;20053;-68
2023/07/21 03:57:10;;;;;;;11.50;10.30;;;;;;;12.58;100.00;101019.00;5307691;28;20038;-68
2023/07/21 03:59:42;;;;;;;10.95;9.02;;;;;;;12.51;100.00;101013.31;5308008;28;20015;-68
2023/07/21 04:02:16;;;;;;;11.38;9.63;;;;;;;12.48;100.00;101014.41;5308041;28;20573;-68
2023/07/21 04:04:48;;;;;;;11.32;9.95;;;;;;;12.32;100.00;101011.28;5307633;28;20213;-68
2023/07/21 04:07:21;;;;;;;11.43;10.13;;;;;;;12.44;100.00;101006.75;5307155;28;20142;-68
2023/07/21 04:09:54;;;;;;;12.48;11.18;;;;;;;12.49;100.00;101008.06;5307297;28;20128;-68
2023/07/21 04:12:25;;;;;;;11.60;9.82;;;;;;;12.34;100.00;100999.47;5308307;28;20027;-68
2023/07/21 04:14:57;;;;;;;13.20;11.80;;;;;;;12.44;100.00;101001.41;5304950;28;20080;-68
2023/07/21 04:17:28;;;;;;;12.90;11.57;;;;;;;12.32;100.00;100998.75;5308558;28;20082;-68
2023/07/21 04:20:00;;;;;;;14.25;12.80;;;;;;;12.40;100.00;100990.09;5305357;28;20027;-68
2023/07/21 04:22:31;;;;;;;14.43;12.93;;;;;;;12.43;100.00;100992.53;5308058;28;20024;-67
2023/07/21 04:25:03;;;;;;;14.35;12.75;;;;;;;12.39;100.00;100987.53;5310860;28;20051;-68
2023/07/21 04:27:35;;;;;;;16.98;15.07;;;;;;;12.48;100.00;100984.97;5308346;28;20130;-68
2023/07/21 04:30:07;;;;;;;15.57;13.98;;;;;;;12.52;100.00;100988.22;5304909;28;20032;-68
2023/07/21 04:32:39;;;;;;;15.63;14.02;;;;;;;12.52;100.00;100990.91;5308676;28;20169;-68
2023/07/21 04:35:10;;;;;;;16.80;15.07;;;;;;;12.63;100.00;100992.69;5307518;28;20034;-67
2023/07/21 04:37:41;;;;;;;17.60;15.60;;;;;;;12.55;100.00;100988.81;5308595;28;20035;-68
2023/07/21 04:40:13;;;;;;;18.58;16.08;;;;;;;12.58;100.00;100998.44;5306140;28;20031;-68
2023/07/21 04:42:45;;;;;;;19.40;16.23;;;;;;;12.60;100.00;100990.28;5288628;28;20038;-68
2023/07/21 04:45:16;;;;;;;19.60;17.60;;;;;;;12.66;100.00;100990.63;5313108;28;20028;-68
2023/07/21 04:47:49;;;;;;;18.75;16.85;;;;;;;12.62;100.00;100991.88;5305784;28;20464;-68
2023/07/21 04:50:20;;;;;;;18.48;16.55;;;;;;;12.72;100.00;100987.44;5308001;28;20024;-68
2023/07/21 04:52:51;;;;;;;20.17;18.15;;;;;;;12.83;100.00;100991.03;5309737;28;20541;-68
2023/07/21 04:55:23;;;;;;;18.27;16.48;;;;;;;12.79;100.00;100992.28;5310338;28;20401;-68
2023/07/21 04:57:54;;;;;;;21.20;19.08;;;;;;;12.87;100.00;100989.81;5305738;28;20118;-67
2023/07/21 05:00:27;;;;;;;20.25;18.25;;;;;;;13.04;100.00;100991.94;5308687;28;20798;-68
2023/07/21 05:02:59;;;;;;;18.05;16.20;;;;;;;12.89;100.00;100979.81;5313203;28;20152;-68
2023/07/21 05:05:32;;;;;;;20.52;17.95;;;;;;;13.04;100.00;100991.06;5310499;28;20028;-68
2023/07/21 05:08:04;;;;;;;18.88;16.88;;;;;;;12.95;100.00;100984.66;5305484;28;20054;-68
2023/07/21 05:10:36;;;;;;;19.95;17.95;;;;;;;12.99;100.00;100988.78;5308928;28;20027;-67
2023/07/21 05:13:07;;;;;;;20.17;18.10;;;;;;;13.02;100.00;100979.63;5312454;28;20040;-68
2023/07/21 05:15:39;;;;;;;19.42;17.33;;;;;;;13.12;100.00;100977.88;5313605;28;20543;-68
2023/07/21 05:18:10;;;;;;;19.60;17.70;;;;;;;13.12;100.00;100981.41;5304576;28;20058;-68
2023/07/21 05:20:42;;;;;;;19.45;17.42;;;;;;;13.20;100.00;100980.75;5307421;28;20574;-68
2023/07/21 05:23:13;;;;;;;19.55;17.50;;;;;;;13.24;100.00;100984.84;5305907;28;20485;-68
2023/07/21 05:25:44;;;;;;;20.13;17.73;;;;;;;13.38;100.00;100982.84;5313774;28;20062;-68
2023/07/21 05:28:16;;;;;;;18.95;16.95;;;;;;;13.35;100.00;100981.31;5289563;28;20081;-68
2023/07/21 05:30:48;;;;;;;20.52;18.33;;;;;;;13.51;100.00;100980.81;5308458;28;20193;-68
2023/07/21 05:33:19;;;;;;;18.55;16.65;;;;;;;13.47;100.00;100984.75;5306684;28;20062;-68
2023/07/21 05:35:51;;;;;;;18.48;16.58;;;;;;;13.56;100.00;100986.63;5309761;28;20020;-68
2023/07/21 05:38:22;;;;;;;18.75;16.75;;;;;;;13.63;100.00;100987.78;5312231;28;20035;-68
2023/07/21 05:40:57;;;;;;;20.17;17.77;;;;;;;13.79;100.00;100983.75;5314396;28;20120;-69
2023/07/21 05:43:29;;;;;;;18.08;16.30;;;;;;;13.79;100.00;100987.31;5316485;28;20043;-68
2023/07/21 05:46:03;;;;;;;17.45;15.63;;;;;;;13.88;100.00;100986.50;5289299;28;20028;-68
2023/07/21 05:48:34;;;;;;;18.50;16.58;;;;;;;14.03;100.00;100978.06;5313438;28;20032;-68
2023/07/21 05:51:11;;;;;;;19.27;17.05;;;;;;;14.16;100.00;100984.03;5314890;28;20023;-68
2023/07/21 05:53:43;;;;;;;17.25;15.23;;;;;;;14.20;100.00;100984.59;5311920;28;20071;-68
2023/07/21 05:56:15;;;;;;;16.90;15.15;;;;;;;14.22;100.00;100991.53;5314501;28;20031;-68
2023/07/21 05:58:46;;;;;;;17.15;15.43;;;;;;;14.26;100.00;100984.88;5307470;28;20466;-68
2023/07/21 06:01:18;;;;;;;16.13;14.43;;;;;;;14.35;100.00;100985.06;5310246;28;20036;-68
2023/07/21 06:03:49;;;;;;;16.98;15.27;;;;;;;14.45;100.00;100997.50;5308734;28;20020;-68
2023/07/21 06:06:22;;;;;;;15.82;13.95;;;;;;;14.45;100.00;100989.44;5316420;28;20538;-69
2023/07/21 06:08:54;;;;;;;15.50;13.93;;;;;;;14.59;100.00;100985.53;5309496;28;20409;-69
2023/07/21 06:11:26;;;;;;;15.07;13.48;;;;;;;14.52;100.00;100985.22;5313607;28;20073;-68
2023/07/21 06:13:57;;;;;;;17.25;13.52;;;;;;;14.72;100.00;100995.16;5312848;28;21329;-69
2023/07/21 06:16:29;;;;;;;15.63;14.00;;;;;;;14.78;100.00;100983.84;5315261;28;20031;-68
2023/07/21 06:19:01;;;;;;;15.93;14.23;;;;;;;14.95;100.00;100984.97;5314200;28;20031;-68
2023/07/21 06:21:32;;;;;;;16.42;14.02;;;;;;;15.00;100.00;100988.94;5316346;28;20151;-69
2023/07/21 06:24:04;;;;;;;16.52;14.82;;;;;;;15.09;100.00;100987.22;5310515;28;20423;-68
2023/07/21 06:26:35;;;;;;;15.63;13.95;;;;;;;15.15;100.00;100980.41;5309524;28;20085;-68
2023/07/21 06:29:07;;;;;;;15.90;14.20;;;;;;;15.28;100.00;100975.59;5307346;28;20482;-69
2023/07/21 06:31:38;;;;;;;16.63;14.65;;;;;;;15.23;100.00;100992.16;5317390;27;20031;-68
2023/07/21 06:34:10;;;;;;;16.55;14.63;;;;;;;15.37;100.00;100980.09;5305698;27;20390;-69
2023/07/21 06:36:41;;;;;;;17.45;15.05;;;;;;;15.51;100.00;100969.88;5294224;28;20098;-68
2023/07/21 06:39:13;;;;;;;15.70;13.98;;;;;;;15.63;100.00;100974.09;5311929;28;20023;-68
2023/07/21 06:41:44;;;;;;;15.93;13.40;;;;;;;15.84;100.00;100972.06;5314327;28;20019;-68
2023/07/21 06:44:16;;;;;;;15.75;14.02;;;;;;;15.92;100.00;100967.78;5312131;28;20063;-69
2023/07/21 06:46:49;;;;;;;16.40;13.75;;;;;;;16.06;100.00;100967.25;5313465;27;20142;-68
2023/07/21 06:49:20;;;;;;;15.63;13.90;;;;;;;16.17;100.00;100968.91;5311050;28;20116;-69
2023/07/21 06:51:52;;;;;;;16.08;13.65;;;;;;;16.29;100.00;100969.53;5304598;28;20064;-69
2023/07/21 06:54:23;;;;;;;15.65;14.00;;;;;;;16.40;100.00;100966.63;5315496;27;20120;-69
2023/07/21 06:56:55;;;;;;;15.15;13.50;;;;;;;16.50;100.00;100967.41;5286276;28;20114;-69
2023/07/21 06:59:27;;;;;;;14.63;13.13;;;;;;;16.54;100.00;100963.41;5307820;28;20084;-69
2023/07/21 07:01:59;;;;;;;15.40;13.40;;;;;;;16.61;100.00;100969.03;5309248;28;20119;-69
2023/07/21 07:04:30;;;;;;;16.50;14.05;;;;;;;16.64;100.00;100968.72;5301237;28;20031;-69
2023/07/21 07:07:01;;;;;;;14.82;13.27;;;;;;;16.72;100.00;100973.31;5312767;28;20031;-69
2023/07/21 07:09:33;;;;;;;16.75;13.80;;;;;;;16.75;100.00;100962.25;5309757;28;20058;-68
2023/07/21 07:12:07;;;;;;;14.35;12.85;;;;;;;16.84;100.00;100961.34;5308352;28;20015;-68
2023/07/21 07:14:38;;;;;;;16.52;13.48;;;;;;;16.87;100.00;100965.56;5314777;28;20023;-68
2023/07/21 07:17:09;;;;;;;15.13;12.93;;;;;;;16.92;100.00;100950.63;5310939;27;20030;-69
2023/07/21 07:19:41;;;;;;;15.10;13.38;;;;;;;16.98;100.00;100952.69;5314550;28;20098;-69
2023/07/21 07:22:13;;;;;;;15.27;13.68;;;;;;;17.08;100.00;100947.22;5313283;28;20486;-68
2023/07/21 07:24:44;;;;;;;15.95;14.05;;;;;;;17.18;100.00;100950.66;5312330;28;20549;-69
2023/07/21 07:27:15;;;;;;;17.77;14.93;;;;;;;17.26;100.00;100952.56;5309343;28;20513;-69
2023/07/21 07:29:47;;;;;;;16.20;13.82;;;;;;;17.36;100.00;100945.22;5312436;27;20035;-68
2023/07/21 07:32:18;;;;;;;16.75;14.27;;;;;;;17.41;100.00;100945.59;5306635;28;20035;-69
2023/07/21 07:34:54;;;;;;;14.75;12.95;;;;;;;17.56;100.00;100944.97;5307981;28;20024;-69
2023/07/21 07:37:28;;;;;;;19.88;14.00;;;;;;;17.76;100.00;100948.28;5307689;28;20465;-68
2023/07/21 07:40:00;;;;;;;14.35;12.82;;;;;;;17.94;100.00;100940.97;5315103;28;20056;-69
2023/07/21 07:42:32;;;;;;;14.63;12.88;;;;;;;18.06;100.00;100946.06;5316834;28;20019;-69
2023/07/21 07:45:03;;;;;;;16.30;12.40;;;;;;;18.18;100.00;100955.56;5311350;28;20031;-69
2023/07/21 07:47:35;;;;;;;14.07;11.13;;;;;;;18.28;100.00;100961.66;5307429;28;20042;-69
2023/07/21 07:50:09;;;;;;;14.65;12.20;;;;;;;18.34;100.00;100954.75;5307443;28;20582;-69
2023/07/21 07:52:42;;;;;;;15.00;11.52;;;;;;;18.51;100.00;100953.78;5312351;28;20023;-68
2023/07/21 07:55:15;;;;;;;14.48;12.65;;;;;;;18.56;100.00;100953.25;5310165;27;20027;-69
2023/07/21 07:57:46;;;;;;;12.43;10.57;;;;;;;18.69;100.00;100958.19;5295467;27;20528;-69
2023/07/21 08:00:18;;;;;;;12.80;10.07;;;;;;;18.70;100.00;100959.88;5309571;28;20024;-69
2023/07/21 08:02:49;;;;;;;13.88;10.98;;;;;;;18.73;100.00;100959.53;5308569;28;20082;-69
2023/07/21 08:05:21;;;;;;;12.80;11.27;;;;;;;18.69;100.00;100953.59;5311717;28;20031;-69
2023/07/21 08:07:53;;;;;;;12.73;11.43;;;;;;;18.77;100.00;100958.19;5311783;27;20048;-69
2023/07/21 08:10:27;;;;;;;13.05;10.80;;;;;;;18.75;100.00;100944.81;5308679;28;20043;-69
2023/07/21 08:13:00;;;;;;;12.55;9.77;;;;;;;18.83;100.00;100948.56;5304516;28;20478;-69
2023/07/21 08:15:32;;;;;;;11.40;10.07;;;;;;;18.85;100.00;100943.84;5310134;28;20023;-69
2023/07/21 08:18:03;;;;;;;11.65;9.45;;;;;;;18.86;100.00;100945.53;5310585;28;20113;-69
2023/07/21 08:20:39;;;;;;;10.55;9.15;;;;;;;18.97;100.00;100942.50;5308300;28;20103;-69
2023/07/21 08:23:10;;;;;;;11.75;9.38;;;;;;;19.05;100.00;100947.06;5304383;28;20084;-69
2023/07/21 08:25:42;;;;;;;11.68;10.20;;;;;;;19.10;100.00;100948.25;5308019;28;20027;-69
2023/07/21 08:28:13;;;;;;;14.55;11.98;;;;;;;19.22;100.00;100945.19;5306589;28;20036;-69
2023/07/21 08:30:44;;;;;;;12.52;11.23;;;;;;;19.32;100.00;100943.97;5311340;28;20081;-69
2023/07/21 08:33:16;;;;;;;12.73;11.23;;;;;;;19.29;100.00;100951.56;5308341;28;20027;-69
2023/07/21 08:35:48;;;;;;;13.07;11.68;;;;;;;19.46;100.00;100938.84;5306452;28;20180;-69
2023/07/21 08:38:19;;;;;;;17.95;14.20;;;;;;;19.47;100.00;100944.09;5309056;28;20035;-69
2023/07/21 08:41:00;;;;;;;16.27;14.38;;;;;;;19.61;100.00;100939.81;5312736;28;20027;-69
2023/07/21 08:43:32;;;;;;;14.40;12.82;;;;;;;19.56;100.00;100936.81;5308858;28;20062;-70
2023/07/21 08:46:07;;;;;;;13.98;12.50;;;;;;;19.57;100.00;100946.63;5310672;28;20051;-69
2023/07/21 08:48:40;;;;;;;15.93;14.23;;;;;;;19.64;100.00;100942.19;5310614;28;20513;-70
2023/07/21 08:51:11;;;;;;;15.68;13.20;;;;;;;19.81;100.00;100944.84;5311244;28;20028;-70
2023/07/21 08:53:43;;;;;;;15.60;13.23;;;;;;;19.77;100.00;100945.22;5300210;28;20028;-69
2023/07/21 08:56:14;;;;;;;14.18;11.73;;;;;;;19.76;100.00;100950.81;5304973;28;20028;-69
2023/07/21 08:58:46;;;;;;;14.45;12.57;;;;;;;19.75;100.00;100947.25;5307611;28;20024;-69
2023/07/21 09:01:17;;;;;;;13.57;11.75;;;;;;;19.70;100.00;100948.78;5306597;28;20039;-70
2023/07/21 09:03:48;;;;;;;12.75;10.23;;;;;;;19.68;100.00;100948.94;5310081;28;20022;-69
2023/07/21 09:06:20;;;;;;;12.70;9.70;;;;;;;19.64;100.00;100944.91;5310588;28;20150;-70
2023/07/21 09:08:53;;;;;;;13.52;10.60;;;;;;;19.59;100.00;100950.81;5295976;28;20039;-70
2023/07/21 09:11:26;;;;;;;11.90;10.20;;;;;;;19.69;100.00;100947.91;5312872;28;20534;-70
2023/07/21 09:13:57;;;;;;;15.50;12.38;;;;;;;19.66;100.00;100942.88;5308584;27;20819;-70
2023/07/21 09:16:32;;;;;;;17.10;12.48;;;;;;;19.77;100.00;100945.22;5314634;28;20027;-69
2023/07/21 09:19:05;;;;;;;15.65;12.70;;;;;;;19.75;100.00;100944.56;5314361;28;20556;-70
2023/07/21 09:21:37;;;;;;;16.30;12.52;;;;;;;19.78;100.00;100946.91;5316387;28;20030;-69
2023/07/21 09:24:09;;;;;;;18.00;15.10;;;;;;;19.86;100.00;100942.47;5312358;28;20126;-69
2023/07/21 09:26:40;;;;;;;19.00;16.60;;;;;;;19.89;100.00;100936.72;5308339;28;20027;-69
2023/07/21 09:29:21;;;;;;;18.92;16.20;;;;;;;19.94;100.00;100934.31;5310058;28;20027;-70
2023/07/21 09:31:52;;;;;;;22.55;16.73;;;;;;;19.98;100.00;100933.78;5311364;27;20442;-70
2023/07/21 09:34:23;;;;;;;19.90;17.52;;;;;;;19.96;100.00;100929.56;5314321;28;20019;-69
2023/07/21 09:36:55;;;;;;;18.92;15.60;;;;;;;20.20;100.00;100927.75;5313745;28;20023;-70
2023/07/21 09:39:26;;;;;;;15.95;14.18;;;;;;;20.38;100.00;100928.28;5310168;28;20023;-69
2023/07/21 09:41:58;;;;;;;15.80;14.13;;;;;;;20.53;100.00;100917.53;5314230;28;20023;-70
2023/07/21 09:44:29;;;;;;;17.60;15.10;;;;;;;20.59;100.00;100921.38;5310361;28;20027;-71
2023/07/21 09:47:01;;;;;;;18.60;16.40;;;;;;;20.59;100.00;100916.78;5310484;27;20039;-70
2023/07/21 09:49:33;;;;;;;17.90;14.63;;;;;;;20.56;100.00;100914.47;5307177;28;20029;-70
2023/07/21 09:52:05;;;;;;;17.15;14.68;;;;;;;20.68;100.00;100910.31;5307817;28;20400;-70
2023/07/21 09:54:41;;;;;;;16.50;14.15;;;;;;;20.77;100.00;100905.69;5308642;28;20027;-70
2023/07/21 09:57:16;;;;;;;15.02;13.20;;;;;;;20.94;100.00;100918.06;5315657;28;20047;-70
2023/07/21 09:59:49;;;;;;;17.23;13.07;;;;;;;21.11;100.00;100907.91;5307806;28;20026;-70
2023/07/21 10:02:22;;;;;;;14.90;13.30;;;;;;;21.18;100.00;100901.72;5312407;28;20032;-70
2023/07/21 10:04:54;;;;;;;15.48;12.93;;;;;;;21.26;100.00;100912.47;5311891;27;20500;-70
2023/07/21 10:07:26;;;;;;;14.85;12.63;;;;;;;21.20;100.00;100914.06;5306601;28;20047;-70
2023/07/21 10:09:59;;;;;;;14.85;13.00;;;;;;;21.11;100.00;100907.03;5311689;28;20031;-70
2023/07/21 10:12:49;;;;;;;13.50;12.10;;;;;;;21.08;100.00;100918.28;5310671;28;20062;-70
2023/07/21 10:15:35;;;;;;;14.10;11.45;;;;;;;20.84;100.00;100925.59;5308222;28;20058;-70
2023/07/21 10:18:10;;;;;;;13.57;11.40;;;;;;;20.66;100.00;100930.50;5311352;28;20055;-70
2023/07/21 10:20:45;;;;;;;16.50;13.98;;;;;;;20.43;100.00;100923.19;5311050;28;20030;-70
2023/07/21 10:23:23;;;;;;;17.08;15.27;;;;;;;20.31;100.00;100930.06;5308916;28;20577;-70
2023/07/21 10:25:56;;;;;;;21.73;18.50;;;;;;;20.05;100.00;100941.19;5303157;28;20351;-71
2023/07/21 10:28:34;;;;;;;19.80;17.33;;;;;;;19.90;100.00;100932.97;5307372;28;20032;-71
2023/07/21 10:31:24;;;;;;;22.48;19.42;;;;;;;19.65;100.00;100940.31;5309646;28;20038;-71
2023/07/21 10:34:14;;;;;;;24.02;18.55;;;;;;;19.48;100.00;100940.38;5310442;28;20108;-70
2023/07/21 10:36:51;;;;;;;21.85;19.52;;;;;;;19.28;100.00;100958.84;5311679;28;20028;-71
2023/07/21 10:39:24;;;;;;;26.40;21.95;;;;;;;19.15;100.00;100970.19;5313784;27;20032;-69
2023/07/21 10:42:00;;;;;;;37.05;27.05;;;;;;;18.87;100.00;100982.38;5310029;28;20054;-68
2023/07/21 10:44:39;;;;;;;31.75;28.23;;;;;;;18.65;100.00;100976.59;5310737;28;20028;-68
2023/07/21 10:47:21;;;;;;;32.92;27.95;;;;;;;18.48;100.00;100982.97;5309668;28;20127;-68
2023/07/21 10:49:53;;;;;;;11.27;10.18;;;;;;;18.11;100.00;100985.06;5308469;27;20084;-67
2023/07/21 10:52:24;;;;;;;19.95;17.70;;;;;;;17.93;100.00;100984.31;5312907;28;20138;-67
2023/07/21 10:54:57;;;;;;;23.88;21.52;;;;;;;17.76;100.00;100980.69;5309334;27;20031;-67
2023/07/21 10:57:34;;;;;;;29.75;26.63;;;;;;;17.71;100.00;101000.03;5310004;28;20040;-67
2023/07/21 11:00:06;;;;;;;30.95;26.27;;;;;;;17.52;100.00;100997.56;5312092;28;20030;-67
2023/07/21 11:02:38;;;;;;;27.08;24.23;;;;;;;17.30;100.00;101002.50;5316360;28;20039;-67
2023/07/21 11:05:11;;;;;;;26.75;22.75;;;;;;;17.22;100.00;100995.19;5306638;28;20020;-67
2023/07/21 11:07:42;;;;;;;20.25;16.23;;;;;;;17.20;100.00;100999.91;5311553;28;20412;-68
2023/07/21 11:10:15;;;;;;;17.60;15.07;;;;;;;16.95;100.00;101006.06;5309029;28;20574;-67
2023/07/21 11:12:50;;;;;;;17.52;15.70;;;;;;;16.74;100.00;101011.72;5308563;28;20044;-67
2023/07/21 11:15:22;;;;;;;15.93;13.35;;;;;;;16.50;100.00;101015.03;5308367;28;20064;-68
2023/07/21 11:17:59;;;;;;;16.05;14.50;;;;;;;16.40;100.00;101015.94;5308807;28;20028;-67
2023/07/21 11:20:30;;;;;;;16.58;14.98;;;;;;;16.29;100.00;101031.47;5311540;28;20092;-67
2023/07/21 11:23:02;;;;;;;18.02;16.13;;;;;;;16.24;100.00;101029.22;5309275;28;20035;-67
2023/07/21 11:25:33;;;;;;;17.90;16.10;;;;;;;16.17;100.00;101030.81;5309278;28;20034;-67
2023/07/21 11:28:11;;;;;;;20.17;18.10;;;;;;;16.18;100.00;101025.28;5309534;28;20109;-67